createdAt,value
2022-08-03T00:01:03.487Z,19.90
2022-08-03T00:03:34.917Z,19.90
2022-08-03T00:06:05.205Z,19.90
2022-08-03T00:08:34.295Z,19.90
2022-08-03T00:11:09.849Z,19.80
2022-08-03T00:13:39.124Z,19.80
2022-08-03T00:18:57.657Z,19.80
2022-08-03T00:21:27.093Z,19.70
2022-08-03T00:23:56.221Z,19.70
2022-08-03T00:26:25.177Z,19.70
2022-08-03T00:28:54.002Z,19.60
2022-08-03T00:31:39.824Z,19.70
2022-08-03T00:34:16.589Z,19.70
2022-08-03T00:37:06.533Z,19.70
2022-08-03T00:39:35.781Z,19.70
2022-08-03T00:42:05.808Z,19.70
2022-08-03T00:44:41.426Z,19.70
2022-08-03T00:47:17.008Z,19.70
2022-08-03T00:49:46.513Z,19.70
2022-08-03T00:52:20.161Z,19.70
2022-08-03T00:54:49.843Z,19.60
2022-08-03T00:57:19.079Z,19.50
2022-08-03T00:59:48.782Z,19.40
2022-08-03T01:02:19.689Z,19.30
2022-08-03T01:04:48.830Z,19.20
2022-08-03T01:07:28.973Z,19.00
2022-08-03T01:10:17.402Z,18.80
2022-08-03T01:13:01.028Z,18.60
2022-08-03T01:15:43.684Z,18.50
2022-08-03T01:18:24.044Z,18.40
2022-08-03T01:20:59.476Z,18.30
2022-08-03T01:23:58.314Z,18.10
2022-08-03T01:27:03.963Z,17.90
2022-08-03T01:30:05.922Z,17.70
2022-08-03T01:33:02.536Z,17.60
2022-08-03T01:35:43.701Z,17.50
2022-08-03T01:38:17.688Z,17.40
2022-08-03T01:40:49.364Z,17.30
2022-08-03T01:44:26.644Z,17.30
2022-08-03T01:46:14.785Z,17.30
2022-08-03T01:48:47.657Z,17.30
2022-08-03T01:52:03.583Z,17.50
2022-08-03T01:54:22.410Z,17.60
2022-08-03T01:56:57.212Z,17.60
2022-08-03T01:59:31.325Z,17.60
2022-08-03T02:02:32.060Z,17.60
2022-08-03T02:04:58.035Z,17.50
2022-08-03T02:07:31.080Z,17.50
2022-08-03T02:10:06.349Z,17.50
2022-08-03T02:12:38.483Z,17.40
2022-08-03T02:15:09.904Z,17.40
2022-08-03T02:17:47.627Z,17.40
2022-08-03T02:20:18.633Z,17.40
2022-08-03T02:22:49.660Z,17.40
2022-08-03T02:25:18.694Z,17.40
2022-08-03T02:27:54.137Z,17.40
2022-08-03T02:30:24.522Z,17.40
2022-08-03T02:32:59.408Z,17.50
2022-08-03T02:35:32.535Z,17.50
2022-08-03T02:38:07.669Z,17.50
2022-08-03T02:40:42.698Z,17.60
2022-08-03T02:43:22.256Z,17.60
2022-08-03T02:45:54.501Z,17.60
2022-08-03T02:48:34.288Z,17.50
2022-08-03T02:51:08.893Z,17.50
2022-08-03T02:53:45.044Z,17.50
2022-08-03T02:56:16.758Z,17.50
2022-08-03T02:58:49.942Z,17.50
2022-08-03T03:01:25.013Z,17.50
2022-08-03T03:03:59.500Z,17.40
2022-08-03T03:06:32.423Z,17.40
2022-08-03T03:09:03.574Z,17.50
2022-08-03T03:11:36.457Z,17.60
2022-08-03T03:14:06.484Z,17.60
2022-08-03T03:16:45.335Z,17.70
2022-08-03T03:19:27.123Z,17.80
2022-08-03T03:21:58.408Z,17.80
2022-08-03T03:24:29.973Z,17.80
2022-08-03T03:26:59.693Z,17.70
2022-08-03T03:29:30.404Z,17.60
2022-08-03T03:32:09.735Z,17.50
2022-08-03T03:34:41.680Z,17.40
2022-08-03T03:37:13.902Z,17.30
2022-08-03T03:39:42.861Z,17.20
2022-08-03T03:42:12.459Z,17.20
2022-08-03T03:44:41.638Z,17.30
2022-08-03T03:47:14.074Z,17.40
2022-08-03T03:49:53.201Z,17.50
2022-08-03T03:52:24.464Z,17.60
2022-08-03T03:54:57.573Z,17.70
2022-08-03T03:57:30.832Z,18.00
2022-08-03T04:00:02.413Z,18.20
2022-08-03T04:02:31.356Z,18.50
2022-08-03T04:05:18.909Z,18.70
2022-08-03T04:08:16.889Z,18.90
2022-08-03T04:11:04.140Z,19.10
2022-08-03T04:13:38.828Z,19.30
2022-08-03T04:16:14.584Z,19.60
2022-08-03T04:18:49.673Z,19.80
2022-08-03T04:21:27.763Z,20.00
2022-08-03T04:24:02.299Z,20.20
2022-08-03T04:26:36.680Z,20.30
2022-08-03T04:29:11.864Z,20.40
2022-08-03T04:31:43.532Z,20.50
2022-08-03T04:34:12.628Z,20.60
2022-08-03T04:36:58.767Z,20.70
2022-08-03T04:39:31.910Z,20.70
2022-08-03T04:42:09.220Z,20.70
2022-08-03T04:44:43.143Z,20.60
2022-08-03T04:47:14.718Z,20.40
2022-08-03T04:49:46.735Z,20.40
2022-08-03T04:52:17.623Z,20.30
2022-08-03T04:54:50.456Z,20.30
2022-08-03T04:57:23.669Z,20.40
2022-08-03T05:00:03.106Z,20.40
2022-08-03T05:02:35.021Z,20.40
2022-08-03T05:05:03.900Z,20.40
2022-08-03T05:07:36.296Z,20.50
2022-08-03T05:10:09.127Z,20.50
2022-08-03T05:12:45.934Z,20.60
2022-08-03T05:15:16.520Z,20.60
2022-08-03T05:17:45.909Z,20.70
2022-08-03T05:20:18.795Z,20.80
2022-08-03T05:22:50.035Z,21.00
2022-08-03T05:25:27.109Z,21.10
2022-08-03T05:27:56.896Z,21.30
2022-08-03T05:30:30.938Z,21.80
2022-08-03T05:33:05.274Z,22.80
2022-08-03T05:36:00.685Z,24.50
2022-08-03T05:38:28.952Z,25.70
2022-08-03T05:41:22.399Z,26.90
2022-08-03T05:43:54.249Z,27.60
2022-08-03T05:46:24.071Z,28.20
2022-08-03T05:48:56.039Z,28.80
2022-08-03T05:51:25.110Z,29.40
2022-08-03T05:53:55.344Z,29.60
2022-08-03T05:56:26.203Z,29.90
2022-08-03T05:58:55.620Z,30.00
2022-08-03T06:01:27.191Z,30.00
2022-08-03T06:03:56.301Z,30.40
2022-08-03T06:06:32.104Z,30.70
2022-08-03T06:09:02.737Z,30.80
2022-08-03T06:11:31.694Z,30.90
2022-08-03T06:14:00.627Z,30.90
2022-08-03T06:16:29.763Z,31.30
2022-08-03T06:18:58.923Z,31.30
2022-08-03T06:21:28.434Z,31.30
2022-08-03T06:23:57.152Z,32.00
2022-08-03T06:26:29.805Z,31.90
2022-08-03T06:28:59.306Z,32.40
2022-08-03T06:31:32.809Z,32.90
2022-08-03T06:34:30.520Z,33.10
2022-08-03T06:37:01.273Z,33.50
2022-08-03T06:39:31.345Z,33.20
2022-08-03T06:42:02.569Z,32.90
2022-08-03T06:44:32.033Z,33.00
2022-08-03T06:47:00.833Z,33.20
2022-08-03T06:49:30.061Z,33.60
2022-08-03T06:52:11.965Z,33.90
2022-08-03T06:54:49.625Z,33.60
2022-08-03T06:57:20.130Z,33.20
2022-08-03T07:00:10.700Z,33.20
2022-08-03T07:02:38.268Z,34.00
2022-08-03T07:05:10.822Z,34.30
2022-08-03T07:07:40.167Z,33.80
2022-08-03T07:10:11.881Z,34.50
2022-08-03T07:12:52.620Z,34.90
2022-08-03T07:15:54.616Z,34.50
2022-08-03T07:18:14.819Z,34.10
2022-08-03T07:20:46.827Z,34.40
2022-08-03T07:23:19.186Z,34.70
2022-08-03T07:25:48.481Z,35.50
2022-08-03T07:28:19.713Z,35.10
2022-08-03T07:30:48.885Z,34.30
2022-08-03T07:33:18.622Z,34.30
2022-08-03T07:35:50.518Z,35.00
2022-08-03T07:38:21.243Z,34.80
2022-08-03T07:40:50.589Z,35.40
2022-08-03T07:43:21.184Z,35.70
2022-08-03T07:45:51.501Z,35.90
2022-08-03T07:48:20.779Z,35.50
2022-08-03T07:50:51.382Z,35.00
2022-08-03T07:53:22.622Z,35.60
2022-08-03T07:55:54.679Z,35.60
2022-08-03T07:58:25.637Z,36.00
2022-08-03T08:00:57.980Z,36.20
2022-08-03T08:03:29.899Z,35.50
2022-08-03T08:06:19.625Z,35.40
2022-08-03T08:08:49.804Z,35.30
2022-08-03T08:11:22.353Z,34.30
2022-08-03T08:13:52.636Z,33.30
2022-08-03T08:16:21.602Z,33.30
2022-08-03T08:18:50.670Z,33.20
2022-08-03T08:21:19.687Z,32.80
2022-08-03T08:23:57.871Z,32.40
2022-08-03T08:26:26.798Z,33.30
2022-08-03T08:28:57.295Z,34.10
2022-08-03T08:31:26.648Z,33.50
2022-08-03T08:34:04.387Z,32.70
2022-08-03T08:36:34.683Z,31.60
2022-08-03T08:39:04.011Z,31.30
2022-08-03T08:41:35.001Z,32.40
2022-08-03T08:44:10.380Z,33.60
2022-08-03T08:46:42.033Z,34.80
2022-08-03T08:49:13.696Z,35.60
2022-08-03T08:51:59.166Z,35.10
2022-08-03T08:54:34.307Z,33.90
2022-08-03T08:57:21.084Z,33.70
2022-08-03T08:59:59.594Z,34.30
2022-08-03T09:02:35.641Z,35.20
2022-08-03T09:05:07.500Z,35.20
2022-08-03T09:07:37.266Z,35.00
2022-08-03T09:10:12.313Z,34.90
2022-08-03T09:12:47.290Z,34.80
2022-08-03T09:15:26.293Z,34.80
2022-08-03T09:17:58.368Z,35.50
2022-08-03T09:20:32.317Z,35.80
2022-08-03T09:23:19.033Z,36.30
2022-08-03T09:26:01.853Z,36.80
2022-08-03T09:28:59.916Z,36.40
2022-08-03T09:31:35.997Z,35.60
2022-08-03T09:34:08.565Z,35.00
2022-08-03T09:36:40.636Z,35.30
2022-08-03T09:39:12.650Z,35.30
2022-08-03T09:41:48.788Z,35.00
2022-08-03T09:44:24.809Z,33.90
2022-08-03T09:46:57.656Z,33.40
2022-08-03T09:49:29.025Z,33.40
2022-08-03T09:52:02.687Z,34.00
2022-08-03T09:54:54.242Z,34.50
2022-08-03T09:57:25.466Z,35.10
2022-08-03T10:00:04.535Z,35.30
2022-08-03T10:02:39.146Z,35.70
2022-08-03T10:05:19.403Z,35.50
2022-08-03T10:07:51.626Z,35.50
2022-08-03T10:10:30.209Z,35.80
2022-08-03T10:13:02.397Z,36.10
2022-08-03T10:16:21.476Z,35.60
2022-08-03T10:18:22.518Z,35.20
2022-08-03T10:20:54.773Z,35.60
2022-08-03T10:23:25.231Z,35.60
2022-08-03T10:26:01.715Z,35.60
2022-08-03T10:28:41.560Z,35.60
2022-08-03T10:31:27.742Z,35.20
2022-08-03T10:34:06.108Z,35.00
2022-08-03T10:36:38.669Z,35.10
2022-08-03T10:39:15.990Z,34.40
2022-08-03T10:41:50.923Z,33.70
2022-08-03T10:44:32.769Z,33.20
2022-08-03T10:47:02.837Z,32.70
2022-08-03T10:49:36.311Z,32.70
2022-08-03T10:52:31.363Z,33.20
2022-08-03T10:55:14.389Z,33.40
2022-08-03T10:57:58.388Z,33.60
2022-08-03T11:00:31.261Z,33.50
2022-08-03T11:03:18.778Z,34.00
2022-08-03T11:05:52.560Z,33.90
2022-08-03T11:08:28.902Z,34.30
2022-08-03T11:11:02.630Z,34.50
2022-08-03T11:13:34.119Z,33.70
2022-08-03T11:16:30.980Z,33.00
2022-08-03T11:19:09.512Z,33.00
2022-08-03T11:22:00.577Z,33.50
2022-08-03T11:25:01.957Z,33.50
2022-08-03T11:27:37.780Z,33.10
2022-08-03T11:30:14.088Z,33.00
2022-08-03T11:32:59.475Z,32.90
2022-08-03T11:35:31.325Z,32.80
2022-08-03T11:38:14.005Z,32.60
2022-08-03T11:40:47.911Z,32.70
2022-08-03T11:43:47.974Z,32.80
2022-08-03T11:46:28.520Z,33.10
2022-08-03T11:49:10.782Z,32.80
2022-08-03T11:51:44.979Z,32.90
2022-08-03T11:54:17.962Z,33.30
2022-08-03T11:56:50.030Z,33.00
2022-08-03T11:59:22.259Z,32.80
2022-08-03T12:01:52.369Z,33.20
2022-08-03T12:04:21.721Z,33.20
2022-08-03T12:07:05.130Z,33.00
2022-08-03T12:09:38.712Z,32.80
2022-08-03T12:12:29.515Z,33.00
2022-08-03T12:14:58.677Z,33.20
2022-08-03T12:17:35.672Z,33.50
2022-08-03T12:20:07.553Z,33.40
2022-08-03T12:22:41.938Z,33.10
2022-08-03T12:25:38.908Z,33.40
2022-08-03T12:28:36.204Z,33.70
2022-08-03T12:31:09.729Z,33.90
2022-08-03T12:33:59.065Z,34.30
2022-08-03T12:36:29.492Z,34.40
2022-08-03T12:39:01.779Z,34.30
2022-08-03T12:41:35.502Z,34.20
2022-08-03T12:44:05.434Z,33.90
2022-08-03T12:46:37.274Z,33.50
2022-08-03T12:49:11.316Z,33.40
2022-08-03T12:51:58.509Z,33.60
2022-08-03T12:54:31.778Z,33.90
2022-08-03T12:57:04.732Z,33.80
2022-08-03T12:59:40.680Z,33.80
2022-08-03T13:02:18.069Z,34.10
2022-08-03T13:04:50.171Z,34.10
2022-08-03T13:07:20.955Z,34.00
2022-08-03T13:09:53.493Z,34.20
2022-08-03T13:12:25.680Z,34.30
2022-08-03T13:14:58.146Z,34.00
2022-08-03T13:17:27.424Z,34.20
2022-08-03T13:19:59.620Z,34.40
2022-08-03T13:22:30.687Z,34.10
2022-08-03T13:25:01.572Z,34.30
2022-08-03T13:28:03.259Z,34.70
2022-08-03T13:30:28.197Z,34.70
2022-08-03T13:33:01.084Z,34.10
2022-08-03T13:35:29.706Z,34.30
2022-08-03T13:37:58.511Z,34.90
2022-08-03T13:40:30.055Z,35.60
2022-08-03T13:43:02.313Z,36.40
2022-08-03T13:45:31.292Z,36.20
2022-08-03T13:48:01.432Z,35.90
2022-08-03T13:50:31.485Z,35.70
2022-08-03T13:53:00.187Z,35.90
2022-08-03T13:55:32.725Z,36.20
2022-08-03T13:58:07.522Z,36.50
2022-08-03T14:00:36.079Z,36.60
2022-08-03T14:03:13.274Z,36.60
2022-08-03T14:05:44.364Z,36.60
2022-08-03T14:08:13.903Z,37.10
2022-08-03T14:10:46.131Z,37.40
2022-08-03T14:13:16.711Z,37.60
2022-08-03T14:15:49.886Z,37.20
2022-08-03T14:18:27.943Z,36.50
2022-08-03T14:21:07.371Z,35.80
2022-08-03T14:23:38.743Z,36.20
2022-08-03T14:26:08.705Z,36.70
2022-08-03T14:28:39.430Z,36.90
2022-08-03T14:32:09.047Z,36.40
2022-08-03T14:33:56.912Z,36.00
2022-08-03T14:36:25.538Z,35.50
2022-08-03T14:38:57.097Z,35.40
2022-08-03T14:41:29.968Z,35.80
2022-08-03T14:44:01.106Z,35.90
2022-08-03T14:46:32.373Z,35.90
2022-08-03T14:50:36.644Z,36.40
2022-08-03T14:51:54.149Z,37.30
2022-08-03T14:54:23.792Z,37.80
2022-08-03T14:56:53.346Z,38.00
2022-08-03T14:59:23.468Z,38.70
2022-08-03T15:02:02.476Z,38.80
2022-08-03T15:04:35.719Z,38.60
2022-08-03T15:07:04.967Z,38.10
2022-08-03T15:09:34.224Z,38.00
2022-08-03T15:12:03.144Z,37.10
2022-08-03T15:14:34.998Z,36.30
2022-08-03T15:20:23.405Z,35.80
2022-08-03T15:23:34.533Z,36.20
2022-08-03T15:26:33.953Z,36.90
2022-08-03T15:30:05.334Z,37.80
2022-08-03T15:32:31.836Z,38.50
2022-08-03T15:35:01.990Z,38.70
2022-08-03T15:37:38.762Z,38.70
2022-08-03T15:40:10.786Z,38.90
2022-08-03T15:42:40.260Z,39.00
2022-08-03T15:45:17.836Z,39.10
2022-08-03T15:47:49.680Z,38.90
2022-08-03T15:50:20.515Z,38.20
2022-08-03T15:52:49.687Z,38.00
2022-08-03T15:55:22.181Z,38.50
2022-08-03T15:59:09.218Z,38.80
2022-08-03T16:00:42.859Z,38.60
2022-08-03T16:03:15.091Z,38.40
2022-08-03T16:05:44.861Z,38.50
2022-08-03T16:08:16.100Z,38.30
2022-08-03T16:10:48.806Z,38.20
2022-08-03T16:13:21.354Z,38.40
2022-08-03T16:16:13.463Z,37.90
2022-08-03T16:18:43.000Z,37.50
2022-08-03T16:21:14.852Z,37.40
2022-08-03T16:23:50.262Z,37.00
2022-08-03T16:26:20.864Z,36.80
2022-08-03T16:28:52.192Z,36.70
2022-08-03T16:31:28.063Z,36.90
2022-08-03T16:33:57.282Z,36.70
2022-08-03T16:36:28.702Z,36.80
2022-08-03T16:39:04.185Z,36.60
2022-08-03T16:41:53.706Z,36.60
2022-08-03T16:44:23.586Z,36.20
2022-08-03T16:47:05.589Z,36.00
2022-08-03T16:49:54.806Z,35.40
2022-08-03T16:52:27.473Z,35.50
2022-08-03T16:54:59.685Z,35.60
2022-08-03T16:57:58.179Z,35.50
2022-08-03T17:00:34.251Z,35.70
2022-08-03T17:03:24.260Z,35.60
2022-08-03T17:05:53.763Z,35.10
2022-08-03T17:08:31.648Z,34.60
2022-08-03T17:11:01.249Z,34.20
2022-08-03T17:13:39.737Z,33.40
2022-08-03T17:16:15.555Z,32.70
2022-08-03T17:18:54.302Z,32.30
2022-08-03T17:21:32.379Z,32.30
2022-08-03T17:24:13.076Z,32.40
2022-08-03T17:26:45.315Z,32.40
2022-08-03T17:29:22.997Z,32.30
2022-08-03T17:32:11.993Z,32.30
2022-08-03T17:34:50.085Z,32.30
2022-08-03T17:37:50.546Z,32.60
2022-08-03T17:40:17.963Z,32.80
2022-08-03T17:42:56.234Z,33.10
2022-08-03T17:45:52.181Z,33.30
2022-08-03T17:48:18.620Z,33.40
2022-08-03T17:50:55.773Z,33.30
2022-08-03T17:53:54.833Z,32.80
2022-08-03T17:56:44.773Z,32.40
2022-08-03T17:59:50.689Z,31.90
2022-08-03T18:02:55.048Z,31.50
2022-08-03T18:06:10.492Z,31.00
2022-08-03T18:08:35.183Z,30.70
2022-08-03T18:11:14.631Z,31.10
2022-08-03T18:13:57.994Z,31.50
2022-08-03T18:16:35.347Z,31.80
2022-08-03T18:19:13.700Z,31.80
2022-08-03T18:22:03.398Z,31.90
2022-08-03T18:24:42.130Z,31.80
2022-08-03T18:27:12.740Z,31.30
2022-08-03T18:29:46.801Z,30.70
2022-08-03T18:32:17.442Z,30.20
2022-08-03T18:34:53.522Z,29.80
2022-08-03T18:37:27.699Z,29.50
2022-08-03T18:40:04.958Z,29.10
2022-08-03T18:42:52.787Z,28.40
2022-08-03T18:45:57.254Z,28.00
2022-08-03T18:48:27.138Z,27.60
2022-08-03T18:51:01.147Z,27.10
2022-08-03T18:54:02.275Z,26.70
2022-08-03T18:56:43.525Z,26.40
2022-08-03T18:59:30.247Z,26.00
2022-08-03T19:02:09.101Z,25.70
2022-08-03T19:04:45.923Z,25.40
2022-08-03T19:07:23.452Z,25.00
2022-08-03T19:09:57.827Z,24.70
2022-08-03T19:12:39.806Z,24.50
2022-08-03T19:15:15.961Z,24.20
2022-08-03T19:17:57.663Z,24.00
2022-08-03T19:20:33.011Z,23.90
2022-08-03T19:23:08.978Z,23.70
2022-08-03T19:26:01.840Z,23.60
2022-08-03T19:28:39.129Z,23.40
2022-08-03T19:31:12.584Z,23.20
2022-08-03T19:33:57.638Z,23.10
2022-08-03T19:36:32.301Z,23.00
2022-08-03T19:39:05.047Z,22.80
2022-08-03T19:41:45.644Z,22.70
2022-08-03T19:44:35.613Z,22.60
2022-08-03T19:47:11.484Z,22.50
2022-08-03T19:49:57.070Z,22.30
2022-08-03T19:52:46.944Z,22.20
2022-08-03T19:55:18.474Z,22.10
2022-08-03T19:57:56.236Z,22.00
2022-08-03T20:00:35.835Z,21.90
2022-08-03T20:03:22.050Z,21.80
2022-08-03T20:05:57.323Z,21.70
2022-08-03T20:08:28.919Z,21.70
2022-08-03T20:10:59.821Z,21.60
2022-08-03T20:13:30.539Z,21.60
2022-08-03T20:16:10.996Z,21.50
2022-08-03T20:18:40.146Z,21.40
2022-08-03T20:21:15.173Z,21.30
2022-08-03T20:24:01.687Z,21.20
2022-08-03T20:26:33.772Z,21.10
2022-08-03T20:29:09.053Z,21.00
2022-08-03T20:31:40.842Z,20.90
2022-08-03T20:34:10.646Z,20.80
2022-08-03T20:36:39.371Z,20.80
2022-08-03T20:39:09.116Z,20.70
2022-08-03T20:41:45.021Z,20.80
2022-08-03T20:44:13.769Z,20.70
2022-08-03T20:46:56.317Z,20.70
2022-08-03T20:49:29.572Z,20.60
2022-08-03T20:52:18.536Z,20.60
2022-08-03T20:54:49.130Z,20.50
2022-08-03T20:57:22.199Z,20.40
2022-08-03T20:59:53.495Z,20.30
2022-08-03T21:02:30.382Z,20.40
2022-08-03T21:05:08.636Z,20.30
2022-08-03T21:07:45.992Z,20.20
2022-08-03T21:10:37.907Z,20.20
2022-08-03T21:13:17.414Z,20.10
2022-08-03T21:16:04.089Z,20.20
2022-08-03T21:19:03.251Z,20.20
2022-08-03T21:21:34.314Z,20.20
2022-08-03T21:24:07.682Z,20.10
2022-08-03T21:26:41.415Z,20.10
2022-08-03T21:29:10.784Z,20.00
2022-08-03T21:31:49.592Z,20.10
2022-08-03T21:34:23.762Z,20.10
2022-08-03T21:36:54.467Z,20.00
2022-08-03T21:39:26.461Z,20.00
2022-08-03T21:41:56.129Z,19.90
2022-08-03T21:44:28.915Z,19.80
2022-08-03T21:47:00.703Z,19.70
2022-08-03T21:50:07.972Z,19.70
2022-08-03T21:52:44.466Z,19.70
2022-08-03T21:55:28.793Z,19.70
2022-08-03T21:58:06.783Z,19.60
2022-08-03T22:00:46.402Z,19.60
2022-08-03T22:03:23.904Z,19.50
2022-08-03T22:06:10.178Z,19.50
2022-08-03T22:09:30.937Z,19.40
2022-08-03T22:12:08.324Z,19.30
2022-08-03T22:14:37.381Z,19.30
2022-08-03T22:17:53.929Z,19.30
2022-08-03T22:20:20.134Z,19.30
2022-08-03T22:23:04.570Z,19.20
2022-08-03T22:25:35.366Z,19.10
2022-08-03T22:28:09.084Z,19.10
2022-08-03T22:30:39.462Z,19.00
2022-08-03T22:33:11.905Z,19.00
2022-08-03T22:35:47.842Z,18.90
2022-08-03T22:38:22.212Z,18.80
2022-08-03T22:40:54.914Z,18.80
2022-08-03T22:43:26.001Z,18.70
2022-08-03T22:46:08.835Z,18.70
2022-08-03T22:48:44.559Z,18.60
2022-08-03T22:51:13.072Z,18.60
2022-08-03T22:53:48.515Z,18.70
2022-08-03T22:56:20.395Z,18.70
2022-08-03T22:58:49.253Z,18.70
2022-08-03T23:01:26.475Z,18.70
2022-08-03T23:04:06.835Z,18.70
2022-08-03T23:06:40.935Z,18.80
2022-08-03T23:09:16.644Z,18.80
2022-08-03T23:11:59.283Z,18.90
2022-08-03T23:14:31.510Z,18.90
2022-08-03T23:17:04.776Z,18.80
2022-08-03T23:19:41.543Z,18.70
2022-08-03T23:22:29.444Z,18.70
2022-08-03T23:25:04.245Z,18.60
2022-08-03T23:27:34.259Z,18.60
2022-08-03T23:30:04.051Z,18.60
2022-08-03T23:32:33.000Z,18.50
2022-08-03T23:35:21.512Z,18.40
2022-08-03T23:38:21.293Z,18.40
2022-08-03T23:40:44.210Z,18.50
2022-08-03T23:43:45.119Z,18.50
2022-08-03T23:46:14.498Z,18.40
2022-08-03T23:48:47.059Z,18.40
2022-08-03T23:51:30.484Z,18.40
2022-08-03T23:54:17.640Z,18.40
2022-08-03T23:57:06.349Z,18.30
2022-08-03T23:59:45.557Z,18.20
